sensor_id;sensor_type;location;lat;lon;timestamp;pressure;altitude;pressure_sealevel;temperature;humidity
34177;BME280;20450;49.074;9.158;2022-12-20T00:00:56;100369.78;;;4.86;77.68
34177;BME280;20450;49.074;9.158;2022-12-20T00:03:23;100366.56;;;4.83;78.41
34177;BME280;20450;49.074;9.158;2022-12-20T00:05:49;100375.13;;;4.86;78.00
34177;BME280;20450;49.074;9.158;2022-12-20T00:08:18;100374.75;;;4.81;78.44
34177;BME280;20450;49.074;9.158;2022-12-20T00:10:44;100371.53;;;4.78;78.56
34177;BME280;20450;49.074;9.158;2022-12-20T00:13:11;100356.34;;;4.78;78.50
34177;BME280;20450;49.074;9.158;2022-12-20T00:15:38;100352.78;;;4.70;78.84
34177;BME280;20450;49.074;9.158;2022-12-20T00:18:06;100343.91;;;4.69;79.06
34177;BME280;20450;49.074;9.158;2022-12-20T00:20:33;100341.25;;;4.69;78.60
34177;BME280;20450;49.074;9.158;2022-12-20T00:23:00;100341.78;;;4.73;78.91
34177;BME280;20450;49.074;9.158;2022-12-20T00:25:29;100341.88;;;4.63;78.77
34177;BME280;20450;49.074;9.158;2022-12-20T00:27:56;100345.56;;;4.62;79.19
34177;BME280;20450;49.074;9.158;2022-12-20T00:30:23;100342.72;;;4.64;78.99
34177;BME280;20450;49.074;9.158;2022-12-20T00:32:50;100336.22;;;4.66;78.70
34177;BME280;20450;49.074;9.158;2022-12-20T00:35:17;100334.88;;;4.70;78.84
34177;BME280;20450;49.074;9.158;2022-12-20T00:37:44;100332.22;;;4.70;79.10
34177;BME280;20450;49.074;9.158;2022-12-20T00:40:12;100322.88;;;4.74;79.00
34177;BME280;20450;49.074;9.158;2022-12-20T00:42:40;100328.72;;;4.78;78.70
34177;BME280;20450;49.074;9.158;2022-12-20T00:45:08;100328.41;;;4.73;78.94
34177;BME280;20450;49.074;9.158;2022-12-20T00:47:35;100329.22;;;4.73;78.60
34177;BME280;20450;49.074;9.158;2022-12-20T00:50:03;100333.22;;;4.69;78.69
34177;BME280;20450;49.074;9.158;2022-12-20T00:52:31;100341.56;;;4.66;78.95
34177;BME280;20450;49.074;9.158;2022-12-20T00:54:57;100335.19;;;4.67;78.64
34177;BME280;20450;49.074;9.158;2022-12-20T00:57:24;100339.03;;;4.65;78.80
34177;BME280;20450;49.074;9.158;2022-12-20T00:59:53;100328.75;;;4.44;79.35
34177;BME280;20450;49.074;9.158;2022-12-20T01:02:20;100329.22;;;4.40;80.00
34177;BME280;20450;49.074;9.158;2022-12-20T01:04:47;100333.94;;;4.46;79.83
34177;BME280;20450;49.074;9.158;2022-12-20T01:07:14;100339.66;;;4.51;79.86
34177;BME280;20450;49.074;9.158;2022-12-20T01:09:41;100321.75;;;4.51;79.45
34177;BME280;20450;49.074;9.158;2022-12-20T01:12:08;100319.78;;;4.53;79.95
34177;BME280;20450;49.074;9.158;2022-12-20T01:14:35;100335.59;;;4.47;79.77
34177;BME280;20450;49.074;9.158;2022-12-20T01:17:04;100344.63;;;4.46;80.15
34177;BME280;20450;49.074;9.158;2022-12-20T01:19:31;100359.69;;;4.47;80.00
34177;BME280;20450;49.074;9.158;2022-12-20T01:21:58;100367.88;;;4.45;79.67
34177;BME280;20450;49.074;9.158;2022-12-20T01:24:25;100355.81;;;4.41;80.15
34177;BME280;20450;49.074;9.158;2022-12-20T01:26:53;100332.38;;;4.09;81.40
34177;BME280;20450;49.074;9.158;2022-12-20T01:29:19;100324.91;;;4.13;81.47
34177;BME280;20450;49.074;9.158;2022-12-20T01:31:47;100332.94;;;4.21;81.98
34177;BME280;20450;49.074;9.158;2022-12-20T01:34:15;100321.63;;;4.27;81.38
34177;BME280;20450;49.074;9.158;2022-12-20T01:36:42;100337.19;;;4.32;80.97
34177;BME280;20450;49.074;9.158;2022-12-20T01:39:12;100325.69;;;4.31;81.35
34177;BME280;20450;49.074;9.158;2022-12-20T01:41:41;100329.16;;;4.32;81.26
34177;BME280;20450;49.074;9.158;2022-12-20T01:47:20;100329.91;;;4.42;80.61
34177;BME280;20450;49.074;9.158;2022-12-20T01:49:51;100314.03;;;4.40;80.52
34177;BME280;20450;49.074;9.158;2022-12-20T01:52:25;100318.69;;;4.38;80.85
34177;BME280;20450;49.074;9.158;2022-12-20T01:55:02;100303.97;;;4.34;80.77
34177;BME280;20450;49.074;9.158;2022-12-20T01:57:36;100310.44;;;4.32;80.75
34177;BME280;20450;49.074;9.158;2022-12-20T02:00:08;100312.97;;;4.33;81.15
34177;BME280;20450;49.074;9.158;2022-12-20T02:02:40;100297.41;;;4.29;81.36
34177;BME280;20450;49.074;9.158;2022-12-20T02:05:11;100295.56;;;4.29;81.78
34177;BME280;20450;49.074;9.158;2022-12-20T02:07:38;100308.47;;;4.34;81.52
34177;BME280;20450;49.074;9.158;2022-12-20T02:10:07;100325.19;;;4.36;81.69
34177;BME280;20450;49.074;9.158;2022-12-20T02:12:39;100312.66;;;4.36;81.44
34177;BME280;20450;49.074;9.158;2022-12-20T02:15:34;100304.47;;;4.38;80.99
34177;BME280;20450;49.074;9.158;2022-12-20T02:18:19;100305.63;;;4.35;81.20
34177;BME280;20450;49.074;9.158;2022-12-20T02:21:18;100308.31;;;4.35;81.45
34177;BME280;20450;49.074;9.158;2022-12-20T02:24:07;100312.34;;;4.39;81.49
34177;BME280;20450;49.074;9.158;2022-12-20T02:27:18;100295.16;;;4.42;81.60
34177;BME280;20450;49.074;9.158;2022-12-20T02:30:09;100280.13;;;4.49;81.65
34177;BME280;20450;49.074;9.158;2022-12-20T02:32:45;100280.81;;;4.51;81.46
34177;BME280;20450;49.074;9.158;2022-12-20T02:35:21;100271.09;;;4.50;81.25
34177;BME280;20450;49.074;9.158;2022-12-20T02:37:52;100281.78;;;4.50;81.19
34177;BME280;20450;49.074;9.158;2022-12-20T02:40:23;100283.66;;;4.49;81.57
34177;BME280;20450;49.074;9.158;2022-12-20T02:42:57;100285.47;;;4.49;81.37
34177;BME280;20450;49.074;9.158;2022-12-20T02:45:31;100267.94;;;4.46;81.48
34177;BME280;20450;49.074;9.158;2022-12-20T02:48:06;100263.72;;;4.44;81.62
34177;BME280;20450;49.074;9.158;2022-12-20T02:50:44;100256.16;;;4.39;81.50
34177;BME280;20450;49.074;9.158;2022-12-20T02:53:15;100264.19;;;4.39;81.65
34177;BME280;20450;49.074;9.158;2022-12-20T02:55:47;100252.69;;;4.39;81.40
34177;BME280;20450;49.074;9.158;2022-12-20T02:58:24;100257.19;;;4.38;81.38
34177;BME280;20450;49.074;9.158;2022-12-20T03:01:00;100251.13;;;4.36;81.13
34177;BME280;20450;49.074;9.158;2022-12-20T03:03:32;100238.63;;;4.37;81.54
34177;BME280;20450;49.074;9.158;2022-12-20T03:06:02;100241.78;;;4.32;81.49
34177;BME280;20450;49.074;9.158;2022-12-20T03:08:29;100251.78;;;4.30;81.56
34177;BME280;20450;49.074;9.158;2022-12-20T03:10:57;100249.97;;;4.31;81.88
34177;BME280;20450;49.074;9.158;2022-12-20T03:13:24;100253.44;;;4.23;81.91
34177;BME280;20450;49.074;9.158;2022-12-20T03:16:00;100234.56;;;4.25;82.10
34177;BME280;20450;49.074;9.158;2022-12-20T03:18:27;100221.66;;;4.20;82.38
34177;BME280;20450;49.074;9.158;2022-12-20T03:20:54;100236.22;;;4.26;82.79
34177;BME280;20450;49.074;9.158;2022-12-20T03:23:21;100230.88;;;4.26;82.60
34177;BME280;20450;49.074;9.158;2022-12-20T03:25:48;100236.22;;;4.26;83.50
34177;BME280;20450;49.074;9.158;2022-12-20T03:28:25;100232.56;;;4.27;82.96
34177;BME280;20450;49.074;9.158;2022-12-20T03:30:53;100243.91;;;4.29;82.50
34177;BME280;20450;49.074;9.158;2022-12-20T03:33:21;100248.78;;;4.33;83.90
34177;BME280;20450;49.074;9.158;2022-12-20T03:35:49;100250.00;;;4.47;84.09
34177;BME280;20450;49.074;9.158;2022-12-20T03:38:17;100249.91;;;4.56;83.42
34177;BME280;20450;49.074;9.158;2022-12-20T03:40:44;100235.50;;;4.57;83.43
34177;BME280;20450;49.074;9.158;2022-12-20T03:43:13;100250.63;;;4.82;83.45
34177;BME280;20450;49.074;9.158;2022-12-20T03:45:41;100242.09;;;4.87;83.06
34177;BME280;20450;49.074;9.158;2022-12-20T03:48:07;100237.81;;;5.10;82.00
34177;BME280;20450;49.074;9.158;2022-12-20T03:50:36;100222.25;;;5.05;81.61
34177;BME280;20450;49.074;9.158;2022-12-20T03:53:03;100229.97;;;5.24;81.64
34177;BME280;20450;49.074;9.158;2022-12-20T03:55:31;100220.75;;;5.27;80.78
34177;BME280;20450;49.074;9.158;2022-12-20T03:57:59;100218.06;;;5.19;79.88
34177;BME280;20450;49.074;9.158;2022-12-20T04:00:30;100213.03;;;5.08;79.65
34177;BME280;20450;49.074;9.158;2022-12-20T04:03:16;100211.69;;;4.96;79.69
34177;BME280;20450;49.074;9.158;2022-12-20T04:05:45;100213.34;;;4.89;82.72
34177;BME280;20450;49.074;9.158;2022-12-20T04:08:12;100207.00;;;4.98;82.73
34177;BME280;20450;49.074;9.158;2022-12-20T04:10:39;100204.34;;;5.62;81.65
34177;BME280;20450;49.074;9.158;2022-12-20T04:13:07;100212.03;;;5.89;79.45
34177;BME280;20450;49.074;9.158;2022-12-20T04:15:34;100200.94;;;6.39;78.06
34177;BME280;20450;49.074;9.158;2022-12-20T04:18:01;100201.69;;;6.55;76.62
34177;BME280;20450;49.074;9.158;2022-12-20T04:20:28;100196.47;;;6.62;77.25
34177;BME280;20450;49.074;9.158;2022-12-20T04:23:14;100203.53;;;6.55;76.65
34177;BME280;20450;49.074;9.158;2022-12-20T04:25:41;100199.63;;;6.65;76.32
34177;BME280;20450;49.074;9.158;2022-12-20T04:28:09;100206.16;;;6.71;76.49
34177;BME280;20450;49.074;9.158;2022-12-20T04:30:36;100201.53;;;6.57;76.64
34177;BME280;20450;49.074;9.158;2022-12-20T04:33:04;100199.06;;;6.47;76.75
34177;BME280;20450;49.074;9.158;2022-12-20T04:35:32;100190.03;;;6.40;76.84
34177;BME280;20450;49.074;9.158;2022-12-20T04:38:00;100181.69;;;6.35;77.02
34177;BME280;20450;49.074;9.158;2022-12-20T04:40:28;100183.97;;;6.46;76.66
34177;BME280;20450;49.074;9.158;2022-12-20T04:42:57;100174.50;;;6.58;76.49
34177;BME280;20450;49.074;9.158;2022-12-20T04:45:24;100179.03;;;6.58;76.21
34177;BME280;20450;49.074;9.158;2022-12-20T04:47:53;100167.47;;;6.57;76.45
34177;BME280;20450;49.074;9.158;2022-12-20T04:50:25;100177.19;;;6.58;76.31
34177;BME280;20450;49.074;9.158;2022-12-20T04:52:52;100162.56;;;6.61;76.70
34177;BME280;20450;49.074;9.158;2022-12-20T04:55:19;100154.69;;;6.59;76.84
34177;BME280;20450;49.074;9.158;2022-12-20T04:57:47;100157.34;;;6.67;76.19
34177;BME280;20450;49.074;9.158;2022-12-20T05:00:15;100150.13;;;6.68;76.37
34177;BME280;20450;49.074;9.158;2022-12-20T05:02:45;100152.81;;;6.68;76.54
34177;BME280;20450;49.074;9.158;2022-12-20T05:05:16;100155.97;;;6.71;76.34
34177;BME280;20450;49.074;9.158;2022-12-20T05:07:48;100160.09;;;6.82;75.41
34177;BME280;20450;49.074;9.158;2022-12-20T05:10:17;100165.94;;;6.85;75.70
34177;BME280;20450;49.074;9.158;2022-12-20T05:12:45;100166.97;;;6.84;76.00
34177;BME280;20450;49.074;9.158;2022-12-20T05:15:22;100149.00;;;6.85;75.19
34177;BME280;20450;49.074;9.158;2022-12-20T05:17:48;100149.31;;;6.90;75.73
34177;BME280;20450;49.074;9.158;2022-12-20T05:20:16;100151.50;;;6.86;75.73
34177;BME280;20450;49.074;9.158;2022-12-20T05:22:45;100155.34;;;6.92;75.38
34177;BME280;20450;49.074;9.158;2022-12-20T05:25:12;100149.84;;;6.85;75.44
34177;BME280;20450;49.074;9.158;2022-12-20T05:27:41;100153.91;;;6.81;75.89
34177;BME280;20450;49.074;9.158;2022-12-20T05:30:09;100150.19;;;6.82;76.13
34177;BME280;20450;49.074;9.158;2022-12-20T05:32:37;100144.78;;;6.90;76.02
34177;BME280;20450;49.074;9.158;2022-12-20T05:35:04;100139.88;;;6.94;75.16
34177;BME280;20450;49.074;9.158;2022-12-20T05:37:32;100136.66;;;6.98;75.26
34177;BME280;20450;49.074;9.158;2022-12-20T05:40:08;100142.00;;;6.98;75.86
34177;BME280;20450;49.074;9.158;2022-12-20T05:42:48;100132.56;;;7.02;74.96
34177;BME280;20450;49.074;9.158;2022-12-20T05:45:15;100125.56;;;7.16;75.20
34177;BME280;20450;49.074;9.158;2022-12-20T05:47:52;100130.13;;;7.15;74.63
34177;BME280;20450;49.074;9.158;2022-12-20T05:50:19;100123.78;;;7.08;74.64
34177;BME280;20450;49.074;9.158;2022-12-20T05:53:19;100126.03;;;7.05;75.23
34177;BME280;20450;49.074;9.158;2022-12-20T05:55:52;100116.94;;;7.06;75.22
34177;BME280;20450;49.074;9.158;2022-12-20T05:58:25;100124.34;;;7.04;75.15
34177;BME280;20450;49.074;9.158;2022-12-20T06:00:59;100119.06;;;6.96;75.67
34177;BME280;20450;49.074;9.158;2022-12-20T06:03:28;100121.38;;;6.99;76.01
34177;BME280;20450;49.074;9.158;2022-12-20T06:05:56;100131.00;;;6.93;75.44
34177;BME280;20450;49.074;9.158;2022-12-20T06:08:26;100124.66;;;6.86;75.70
34177;BME280;20450;49.074;9.158;2022-12-20T06:10:55;100129.06;;;6.79;76.68
34177;BME280;20450;49.074;9.158;2022-12-20T06:13:22;100123.53;;;6.81;76.18
34177;BME280;20450;49.074;9.158;2022-12-20T06:15:52;100126.69;;;6.84;76.39
34177;BME280;20450;49.074;9.158;2022-12-20T06:18:20;100130.34;;;6.91;76.30
34177;BME280;20450;49.074;9.158;2022-12-20T06:20:51;100134.31;;;6.95;76.05
34177;BME280;20450;49.074;9.158;2022-12-20T06:23:22;100129.97;;;6.94;76.11
34177;BME280;20450;49.074;9.158;2022-12-20T06:26:04;100125.63;;;6.93;76.17
34177;BME280;20450;49.074;9.158;2022-12-20T06:28:34;100117.84;;;6.98;75.63
34177;BME280;20450;49.074;9.158;2022-12-20T06:31:01;100125.53;;;7.01;76.04
34177;BME280;20450;49.074;9.158;2022-12-20T06:33:50;100121.84;;;7.02;75.58
34177;BME280;20450;49.074;9.158;2022-12-20T06:36:21;100121.56;;;6.97;76.21
34177;BME280;20450;49.074;9.158;2022-12-20T06:38:49;100129.97;;;6.94;75.94
34177;BME280;20450;49.074;9.158;2022-12-20T06:41:16;100137.84;;;6.96;76.37
34177;BME280;20450;49.074;9.158;2022-12-20T06:43:44;100137.84;;;6.96;76.31
34177;BME280;20450;49.074;9.158;2022-12-20T06:46:11;100133.88;;;6.92;75.97
34177;BME280;20450;49.074;9.158;2022-12-20T06:48:38;100134.03;;;6.90;75.56
34177;BME280;20450;49.074;9.158;2022-12-20T06:51:07;100141.59;;;6.87;76.34
34177;BME280;20450;49.074;9.158;2022-12-20T06:53:36;100134.44;;;6.79;76.24
34177;BME280;20450;49.074;9.158;2022-12-20T06:56:04;100139.88;;;6.71;76.46
34177;BME280;20450;49.074;9.158;2022-12-20T06:58:31;100133.72;;;6.63;76.15
34177;BME280;20450;49.074;9.158;2022-12-20T07:00:58;100135.97;;;6.51;76.75
34177;BME280;20450;49.074;9.158;2022-12-20T07:03:25;100129.66;;;6.44;77.52
34177;BME280;20450;49.074;9.158;2022-12-20T07:05:53;100132.53;;;6.43;77.73
34177;BME280;20450;49.074;9.158;2022-12-20T07:08:21;100138.84;;;6.50;78.21
34177;BME280;20450;49.074;9.158;2022-12-20T07:10:50;100127.84;;;6.59;77.88
34177;BME280;20450;49.074;9.158;2022-12-20T07:13:18;100119.09;;;6.65;76.75
34177;BME280;20450;49.074;9.158;2022-12-20T07:15:45;100120.63;;;6.68;76.54
34177;BME280;20450;49.074;9.158;2022-12-20T07:18:12;100115.06;;;6.69;77.56
34177;BME280;20450;49.074;9.158;2022-12-20T07:20:39;100112.03;;;6.72;76.55
34177;BME280;20450;49.074;9.158;2022-12-20T07:23:06;100110.94;;;6.81;76.50
34177;BME280;20450;49.074;9.158;2022-12-20T07:25:33;100101.16;;;6.88;75.73
34177;BME280;20450;49.074;9.158;2022-12-20T07:28:02;100100.91;;;6.98;76.32
34177;BME280;20450;49.074;9.158;2022-12-20T07:30:29;100104.94;;;7.16;75.73
34177;BME280;20450;49.074;9.158;2022-12-20T07:32:56;100097.81;;;7.23;75.13
34177;BME280;20450;49.074;9.158;2022-12-20T07:35:23;100101.44;;;7.30;74.68
34177;BME280;20450;49.074;9.158;2022-12-20T07:37:51;100109.50;;;7.30;74.91
34177;BME280;20450;49.074;9.158;2022-12-20T07:40:18;100112.56;;;7.27;74.31
34177;BME280;20450;49.074;9.158;2022-12-20T07:42:45;100105.25;;;7.36;74.41
34177;BME280;20450;49.074;9.158;2022-12-20T07:45:16;100107.03;;;7.43;74.00
34177;BME280;20450;49.074;9.158;2022-12-20T07:47:43;100107.47;;;7.47;73.71
34177;BME280;20450;49.074;9.158;2022-12-20T07:50:10;100109.59;;;7.51;74.14
34177;BME280;20450;49.074;9.158;2022-12-20T07:52:38;100107.94;;;7.50;74.36
34177;BME280;20450;49.074;9.158;2022-12-20T07:55:10;100106.56;;;7.54;73.85
34177;BME280;20450;49.074;9.158;2022-12-20T07:57:41;100115.09;;;7.58;73.80
34177;BME280;20450;49.074;9.158;2022-12-20T08:00:16;100104.91;;;7.68;73.32
34177;BME280;20450;49.074;9.158;2022-12-20T08:02:46;100108.78;;;7.80;72.47
34177;BME280;20450;49.074;9.158;2022-12-20T08:05:16;100115.69;;;7.82;72.79
34177;BME280;20450;49.074;9.158;2022-12-20T08:07:45;100106.09;;;7.80;73.04
34177;BME280;20450;49.074;9.158;2022-12-20T08:10:17;100111.28;;;7.81;72.79
34177;BME280;20450;49.074;9.158;2022-12-20T08:12:46;100114.84;;;7.82;72.57
34177;BME280;20450;49.074;9.158;2022-12-20T08:15:16;100115.56;;;7.90;72.45
34177;BME280;20450;49.074;9.158;2022-12-20T08:17:43;100112.13;;;7.96;72.61
34177;BME280;20450;49.074;9.158;2022-12-20T08:20:11;100101.38;;;7.96;72.21
34177;BME280;20450;49.074;9.158;2022-12-20T08:22:38;100105.72;;;7.97;72.54
34177;BME280;20450;49.074;9.158;2022-12-20T08:25:06;100105.72;;;7.97;72.75
34177;BME280;20450;49.074;9.158;2022-12-20T08:27:34;100101.91;;;8.06;71.92
34177;BME280;20450;49.074;9.158;2022-12-20T08:30:01;100092.72;;;8.16;71.85
34177;BME280;20450;49.074;9.158;2022-12-20T08:32:29;100097.84;;;8.25;71.55
34177;BME280;20450;49.074;9.158;2022-12-20T08:34:56;100088.25;;;8.37;70.95
34177;BME280;20450;49.074;9.158;2022-12-20T08:37:23;100086.13;;;8.33;71.33
34177;BME280;20450;49.074;9.158;2022-12-20T08:39:50;100069.13;;;8.32;71.21
34177;BME280;20450;49.074;9.158;2022-12-20T08:42:17;100073.75;;;8.38;71.12
34177;BME280;20450;49.074;9.158;2022-12-20T08:44:44;100083.38;;;8.47;71.13
34177;BME280;20450;49.074;9.158;2022-12-20T08:47:11;100087.72;;;8.63;70.51
34177;BME280;20450;49.074;9.158;2022-12-20T08:49:39;100085.22;;;8.61;70.69
34177;BME280;20450;49.074;9.158;2022-12-20T08:52:13;100087.31;;;8.66;70.42
34177;BME280;20450;49.074;9.158;2022-12-20T08:54:40;100058.22;;;8.76;70.21
34177;BME280;20450;49.074;9.158;2022-12-20T08:57:08;100059.66;;;8.78;69.82
34177;BME280;20450;49.074;9.158;2022-12-20T08:59:34;100054.56;;;8.83;69.44
34177;BME280;20450;49.074;9.158;2022-12-20T09:02:01;100056.19;;;8.84;69.57
34177;BME280;20450;49.074;9.158;2022-12-20T09:04:29;100051.66;;;8.85;69.87
34177;BME280;20450;49.074;9.158;2022-12-20T09:06:57;100052.09;;;8.88;69.18
34177;BME280;20450;49.074;9.158;2022-12-20T09:09:24;100044.47;;;8.92;69.55
34177;BME280;20450;49.074;9.158;2022-12-20T09:11:51;100043.56;;;9.06;68.86
34177;BME280;20450;49.074;9.158;2022-12-20T09:14:18;100049.88;;;9.19;67.96
34177;BME280;20450;49.074;9.158;2022-12-20T09:16:45;100038.25;;;9.19;68.28
34177;BME280;20450;49.074;9.158;2022-12-20T09:19:15;100033.72;;;9.26;68.11
34177;BME280;20450;49.074;9.158;2022-12-20T09:21:42;100041.22;;;9.24;68.24
34177;BME280;20450;49.074;9.158;2022-12-20T09:24:10;100054.50;;;9.25;67.87
34177;BME280;20450;49.074;9.158;2022-12-20T09:26:37;100060.88;;;9.24;68.35
34177;BME280;20450;49.074;9.158;2022-12-20T09:29:04;100063.16;;;9.21;68.50
34177;BME280;20450;49.074;9.158;2022-12-20T09:31:31;100052.00;;;9.30;68.69
34177;BME280;20450;49.074;9.158;2022-12-20T09:33:58;100068.16;;;9.24;68.37
34177;BME280;20450;49.074;9.158;2022-12-20T09:36:28;100051.72;;;9.19;68.52
34177;BME280;20450;49.074;9.158;2022-12-20T09:38:56;100054.09;;;9.28;68.05
34177;BME280;20450;49.074;9.158;2022-12-20T09:41:32;100036.22;;;9.27;68.44
34177;BME280;20450;49.074;9.158;2022-12-20T09:44:11;100039.09;;;9.19;68.95
34177;BME280;20450;49.074;9.158;2022-12-20T09:46:43;100044.91;;;9.23;69.70
34177;BME280;20450;49.074;9.158;2022-12-20T09:49:14;100044.53;;;9.26;69.79
34177;BME280;20450;49.074;9.158;2022-12-20T09:51:59;100048.66;;;9.22;69.73
34177;BME280;20450;49.074;9.158;2022-12-20T09:54:45;100049.28;;;9.24;69.64
34177;BME280;20450;49.074;9.158;2022-12-20T09:57:25;100047.59;;;9.23;69.60
34177;BME280;20450;49.074;9.158;2022-12-20T10:00:11;100048.06;;;9.26;69.87
34177;BME280;20450;49.074;9.158;2022-12-20T10:02:39;100051.53;;;9.20;69.66
34177;BME280;20450;49.074;9.158;2022-12-20T10:05:33;100039.50;;;9.16;68.99
34177;BME280;20450;49.074;9.158;2022-12-20T10:08:15;100044.69;;;9.18;69.69
34177;BME280;20450;49.074;9.158;2022-12-20T10:10:55;100046.28;;;9.12;69.60
34177;BME280;20450;49.074;9.158;2022-12-20T10:13:37;100034.03;;;9.10;69.67
34177;BME280;20450;49.074;9.158;2022-12-20T10:16:29;100028.97;;;9.00;70.05
34177;BME280;20450;49.074;9.158;2022-12-20T10:19:21;100018.56;;;8.91;70.36
34177;BME280;20450;49.074;9.158;2022-12-20T10:22:06;100025.34;;;8.87;71.66
34177;BME280;20450;49.074;9.158;2022-12-20T10:24:43;100024.75;;;8.91;71.47
34177;BME280;20450;49.074;9.158;2022-12-20T10:27:17;100014.44;;;8.95;70.98
34177;BME280;20450;49.074;9.158;2022-12-20T10:29:48;100004.94;;;8.99;69.90
34177;BME280;20450;49.074;9.158;2022-12-20T10:32:18;100007.28;;;9.08;69.63
34177;BME280;20450;49.074;9.158;2022-12-20T10:34:52;100002.53;;;9.10;69.72
34177;BME280;20450;49.074;9.158;2022-12-20T10:37:23;100006.50;;;9.14;69.64
34177;BME280;20450;49.074;9.158;2022-12-20T10:39:51;99997.19;;;9.17;69.40
34177;BME280;20450;49.074;9.158;2022-12-20T10:42:24;99999.09;;;9.23;68.64
34177;BME280;20450;49.074;9.158;2022-12-20T10:44:59;99984.00;;;9.28;69.05
34177;BME280;20450;49.074;9.158;2022-12-20T10:47:36;99996.06;;;9.32;68.50
34177;BME280;20450;49.074;9.158;2022-12-20T10:50:13;99984.03;;;9.35;68.32
34177;BME280;20450;49.074;9.158;2022-12-20T10:52:42;99977.41;;;9.37;68.85
34177;BME280;20450;49.074;9.158;2022-12-20T10:55:32;99969.31;;;9.37;68.47
34177;BME280;20450;49.074;9.158;2022-12-20T10:58:02;99975.16;;;9.41;68.53
34177;BME280;20450;49.074;9.158;2022-12-20T11:00:33;99974.75;;;9.44;69.32
34177;BME280;20450;49.074;9.158;2022-12-20T11:03:09;99977.03;;;9.47;68.52
34177;BME280;20450;49.074;9.158;2022-12-20T11:05:39;99968.31;;;9.45;68.15
34177;BME280;20450;49.074;9.158;2022-12-20T11:08:13;99975.41;;;9.46;68.33
34177;BME280;20450;49.074;9.158;2022-12-20T11:11:11;99973.31;;;9.48;68.62
34177;BME280;20450;49.074;9.158;2022-12-20T11:13:41;99959.22;;;9.52;67.73
34177;BME280;20450;49.074;9.158;2022-12-20T11:16:27;99953.84;;;9.52;68.07
34177;BME280;20450;49.074;9.158;2022-12-20T11:19:25;99955.53;;;9.53;68.13
34177;BME280;20450;49.074;9.158;2022-12-20T11:22:03;99951.13;;;9.52;68.21
34177;BME280;20450;49.074;9.158;2022-12-20T11:24:44;99943.25;;;9.51;67.83
34177;BME280;20450;49.074;9.158;2022-12-20T11:27:26;99939.31;;;9.47;67.84
34177;BME280;20450;49.074;9.158;2022-12-20T11:30:16;99932.06;;;9.47;68.46
34177;BME280;20450;49.074;9.158;2022-12-20T11:33:36;99929.16;;;9.49;68.12
34177;BME280;20450;49.074;9.158;2022-12-20T11:36:17;99939.94;;;9.49;68.83
34177;BME280;20450;49.074;9.158;2022-12-20T11:38:58;99936.41;;;9.48;68.77
34177;BME280;20450;49.074;9.158;2022-12-20T11:41:42;99941.16;;;9.46;68.80
34177;BME280;20450;49.074;9.158;2022-12-20T11:44:22;99924.56;;;9.43;69.38
34177;BME280;20450;49.074;9.158;2022-12-20T11:47:17;99926.22;;;9.44;68.80
34177;BME280;20450;49.074;9.158;2022-12-20T11:50:03;99911.91;;;9.43;69.09
34177;BME280;20450;49.074;9.158;2022-12-20T11:52:47;99884.34;;;9.48;68.20
34177;BME280;20450;49.074;9.158;2022-12-20T11:55:20;99866.91;;;9.44;68.98
34177;BME280;20450;49.074;9.158;2022-12-20T11:57:57;99866.06;;;9.43;69.36
34177;BME280;20450;49.074;9.158;2022-12-20T12:00:49;99879.97;;;9.47;68.84
34177;BME280;20450;49.074;9.158;2022-12-20T12:03:24;99883.53;;;9.47;68.93
34177;BME280;20450;49.074;9.158;2022-12-20T12:06:00;99883.53;;;9.47;69.03
34177;BME280;20450;49.074;9.158;2022-12-20T12:08:37;99893.91;;;9.50;69.22
34177;BME280;20450;49.074;9.158;2022-12-20T12:11:13;99886.66;;;9.57;68.24
34177;BME280;20450;49.074;9.158;2022-12-20T12:14:04;99890.59;;;9.61;67.71
34177;BME280;20450;49.074;9.158;2022-12-20T12:16:34;99892.91;;;9.58;68.95
34177;BME280;20450;49.074;9.158;2022-12-20T12:19:08;99894.09;;;9.55;68.95
34177;BME280;20450;49.074;9.158;2022-12-20T12:21:43;99899.94;;;9.59;68.65
34177;BME280;20450;49.074;9.158;2022-12-20T12:24:18;99887.09;;;9.61;68.78
34177;BME280;20450;49.074;9.158;2022-12-20T12:26:51;99884.41;;;9.61;69.19
34177;BME280;20450;49.074;9.158;2022-12-20T12:29:20;99872.56;;;9.62;68.82
34177;BME280;20450;49.074;9.158;2022-12-20T12:31:53;99862.81;;;9.67;67.93
34177;BME280;20450;49.074;9.158;2022-12-20T12:34:36;99857.22;;;9.69;67.95
34177;BME280;20450;49.074;9.158;2022-12-20T12:37:28;99856.22;;;9.70;67.53
34177;BME280;20450;49.074;9.158;2022-12-20T12:40:33;99856.00;;;9.71;67.71
34177;BME280;20450;49.074;9.158;2022-12-20T12:43:42;99842.53;;;9.71;67.69
34177;BME280;20450;49.074;9.158;2022-12-20T12:46:13;99846.03;;;9.72;68.26
34177;BME280;20450;49.074;9.158;2022-12-20T12:48:49;99849.78;;;9.71;67.87
34177;BME280;20450;49.074;9.158;2022-12-20T12:51:24;99846.88;;;9.72;68.16
34177;BME280;20450;49.074;9.158;2022-12-20T12:54:11;99854.31;;;9.70;67.97
34177;BME280;20450;49.074;9.158;2022-12-20T12:56:55;99848.72;;;9.72;68.18
34177;BME280;20450;49.074;9.158;2022-12-20T12:59:47;99837.97;;;9.78;68.02
34177;BME280;20450;49.074;9.158;2022-12-20T13:02:48;99828.19;;;9.84;67.59
34177;BME280;20450;49.074;9.158;2022-12-20T13:05:40;99825.31;;;9.92;67.35
34177;BME280;20450;49.074;9.158;2022-12-20T13:08:15;99821.56;;;9.93;67.65
34177;BME280;20450;49.074;9.158;2022-12-20T13:10:59;99796.25;;;9.94;66.98
34177;BME280;20450;49.074;9.158;2022-12-20T13:13:27;99783.38;;;9.96;67.07
34177;BME280;20450;49.074;9.158;2022-12-20T13:16:12;99789.63;;;9.96;67.64
34177;BME280;20450;49.074;9.158;2022-12-20T13:19:14;99787.97;;;10.02;66.82
34177;BME280;20450;49.074;9.158;2022-12-20T13:21:43;99787.31;;;10.00;67.22
34177;BME280;20450;49.074;9.158;2022-12-20T13:24:39;99789.41;;;9.98;66.95
34177;BME280;20450;49.074;9.158;2022-12-20T13:27:27;99801.88;;;10.06;67.04
34177;BME280;20450;49.074;9.158;2022-12-20T13:32:57;99806.06;;;10.15;66.65
34177;BME280;20450;49.074;9.158;2022-12-20T13:35:47;99803.97;;;10.10;67.57
34177;BME280;20450;49.074;9.158;2022-12-20T13:38:54;99811.63;;;9.93;67.27